Time,TemperatureF,DewpointF,PressureIn,WindDirection,WindDirectionDegrees,WindSpeedMPH,WindSpeedGustMPH,Humidity,HourlyPrecipIn,Conditions,Clouds,dailyrainin,SolarRadiationWatts/m^2,SoftwareType,DateUTC
2013-06-07 00:02:00,66.0,44.0,-100.00,WNW,298,6.0,11.0,45,0.00,,,0.00,0.000000,,2013-06-07 07:02:00,
2013-06-07 00:52:00,66.0,44.0,-100.00,WNW,303,8.0,13.0,45,-99.99,,,-99.99,0.000000,,2013-06-07 07:52:00,
2013-06-07 01:02:00,66.0,44.0,-100.00,WNW,303,8.0,13.0,45,-99.99,,,-99.99,0.000000,,2013-06-07 08:02:00,
2013-06-07 01:52:00,65.0,44.0,-100.00,WNW,301,7.0,12.0,47,-99.99,,,0.00,0.000000,,2013-06-07 08:52:00,
2013-06-07 02:02:00,65.0,44.0,-100.00,WNW,301,7.0,12.0,47,-99.99,,,0.00,0.000000,,2013-06-07 09:02:00,
2013-06-07 02:53:00,61.0,42.0,-100.00,WNW,297,7.0,11.0,50,0.00,,,0.00,0.000000,,2013-06-07 09:53:00,
2013-06-07 03:02:00,61.0,42.0,-100.00,WNW,297,7.0,11.0,50,0.00,,,0.00,0.000000,,2013-06-07 10:02:00,
2013-06-07 03:53:00,61.0,44.0,-100.00,NW,308,9.0,12.0,53,-99.99,,,0.00,0.000000,,2013-06-07 10:53:00,
2013-06-07 04:02:00,61.0,44.0,-100.00,NW,308,9.0,12.0,53,-99.99,,,0.00,0.000000,,2013-06-07 11:02:00,
2013-06-07 04:52:00,60.0,44.0,-100.00,NW,310,7.0,12.0,55,-99.99,,,0.00,0.000000,,2013-06-07 11:52:00,
2013-06-07 05:02:00,60.0,44.0,-100.00,NW,310,7.0,12.0,55,-99.99,,,0.00,0.000000,,2013-06-07 12:02:00,
2013-06-07 05:52:00,60.0,43.0,-100.00,NW,314,8.0,12.0,54,-99.99,,,0.00,0.000000,,2013-06-07 12:52:00,
2013-06-07 06:02:00,60.0,43.0,-100.00,NW,314,8.0,12.0,54,-99.99,,,0.00,0.000000,,2013-06-07 13:02:00,
2013-06-07 06:52:00,60.0,44.0,-100.00,NW,306,9.0,12.0,55,-99.99,,,0.00,10.000000,,2013-06-07 13:52:00,
2013-06-07 07:02:00,60.0,44.0,-100.00,NW,306,9.0,12.0,55,-99.99,,,0.00,10.000000,,2013-06-07 14:02:00,
2013-06-07 07:52:00,68.0,49.0,-100.00,WNW,298,8.0,12.0,50,-99.99,,,0.00,167.000000,,2013-06-07 14:52:00,
2013-06-07 08:02:00,68.0,49.0,-100.00,WNW,298,8.0,12.0,50,-99.99,,,0.00,167.000000,,2013-06-07 15:02:00,
2013-06-07 08:53:00,77.0,44.0,-100.00,WNW,292,6.0,11.0,31,0.00,,,-99.99,431.000000,,2013-06-07 15:53:00,
2013-06-07 09:03:00,77.0,44.0,-100.00,WNW,292,6.0,11.0,31,0.00,,,-99.99,431.000000,,2013-06-07 16:03:00,
2013-06-07 09:53:00,85.0,41.0,-100.00,WNW,298,3.0,10.0,21,0.00,,,0.00,663.000000,,2013-06-07 16:53:00,
2013-06-07 10:02:00,85.0,41.0,-100.00,WNW,298,3.0,10.0,21,0.00,,,0.00,663.000000,,2013-06-07 17:02:00,
2013-06-07 10:52:00,93.0,20.0,-100.00,ESE,109,5.0,16.0,7,0.00,,,0.00,869.000000,,2013-06-07 17:52:00,
2013-06-07 11:04:00,93.0,20.0,-100.00,ESE,109,5.0,16.0,7,0.00,,,0.00,869.000000,,2013-06-07 18:04:00,
2013-06-07 11:23:00,93.0,20.0,-100.00,ESE,109,5.0,16.0,7,0.00,,,0.00,869.000000,,2013-06-07 18:23:00,
2013-06-07 11:58:00,92.0,16.0,-100.00,SE,124,7.0,17.0,6,0.00,,,0.00,1030.000000,,2013-06-07 18:58:00,
2013-06-07 12:05:00,92.0,16.0,-100.00,SE,124,7.0,17.0,6,0.00,,,0.00,1030.000000,,2013-06-07 19:05:00,
2013-06-07 12:13:00,92.0,16.0,-100.00,SE,124,7.0,17.0,6,0.00,,,0.00,1030.000000,,2013-06-07 19:13:00,
2013-06-07 12:57:00,94.0,17.0,-100.00,SE,137,9.0,28.0,6,0.00,,,0.00,1135.000000,,2013-06-07 19:57:00,
2013-06-07 13:04:00,94.0,17.0,-100.00,SE,137,9.0,28.0,6,0.00,,,0.00,1135.000000,,2013-06-07 20:04:00,
2013-06-07 13:13:00,94.0,17.0,-100.00,SE,137,9.0,28.0,6,0.00,,,0.00,1135.000000,,2013-06-07 20:13:00,
2013-06-07 13:23:00,94.0,17.0,-100.00,SE,137,9.0,28.0,6,0.00,,,0.00,1135.000000,,2013-06-07 20:23:00,
2013-06-07 13:57:00,96.0,14.0,-100.00,SE,126,11.0,24.0,5,0.00,,,0.00,1148.000000,,2013-06-07 20:57:00,
2013-06-07 14:04:00,96.0,14.0,-100.00,SE,126,11.0,24.0,5,0.00,,,0.00,1148.000000,,2013-06-07 21:04:00,
2013-06-07 14:14:00,96.0,14.0,-100.00,SE,126,11.0,24.0,5,0.00,,,0.00,1148.000000,,2013-06-07 21:14:00,
2013-06-07 14:24:00,96.0,14.0,-100.00,SE,126,11.0,24.0,5,0.00,,,0.00,1148.000000,,2013-06-07 21:24:00,
2013-06-07 15:00:00,95.0,14.0,-100.00,SSE,154,9.0,22.0,5,0.00,,,0.00,1140.000000,,2013-06-07 22:00:00,
2013-06-07 15:07:00,95.0,14.0,-100.00,SSE,154,9.0,22.0,5,0.00,,,0.00,1140.000000,,2013-06-07 22:07:00,
2013-06-07 15:17:00,95.0,14.0,-100.00,SSE,154,9.0,22.0,5,0.00,,,0.00,1140.000000,,2013-06-07 22:17:00,
2013-06-07 15:24:00,95.0,14.0,-100.00,SSE,154,9.0,22.0,5,0.00,,,0.00,1140.000000,,2013-06-07 22:24:00,
2013-06-07 15:59:00,95.0,14.0,-100.00,SE,124,13.0,25.0,5,0.00,,,0.00,1045.000000,,2013-06-07 22:59:00,
2013-06-07 16:05:00,95.0,14.0,-100.00,SE,124,13.0,25.0,5,0.00,,,0.00,1045.000000,,2013-06-07 23:05:00,
2013-06-07 16:15:00,95.0,14.0,-100.00,SE,124,13.0,25.0,5,0.00,,,0.00,1045.000000,,2013-06-07 23:15:00,
2013-06-07 16:22:00,95.0,14.0,-100.00,SE,124,13.0,25.0,5,0.00,,,0.00,1045.000000,,2013-06-07 23:22:00,
2013-06-07 17:01:00,96.0,14.0,-100.00,SE,137,9.0,21.0,5,0.00,,,0.00,878.000000,,2013-06-08 00:01:00,
2013-06-07 17:14:00,96.0,14.0,-100.00,SE,137,9.0,21.0,5,0.00,,,0.00,878.000000,,2013-06-08 00:14:00,
2013-06-07 17:58:00,95.0,18.0,-100.00,SE,126,8.0,20.0,6,0.00,,,0.00,686.000000,,2013-06-08 00:58:00,
2013-06-07 18:05:00,95.0,18.0,-100.00,SE,126,8.0,20.0,6,0.00,,,0.00,686.000000,,2013-06-08 01:05:00,
2013-06-07 18:15:00,95.0,18.0,-100.00,SE,126,8.0,20.0,6,0.00,,,0.00,686.000000,,2013-06-08 01:15:00,
2013-06-07 18:24:00,95.0,18.0,-100.00,SE,126,8.0,20.0,6,0.00,,,0.00,686.000000,,2013-06-08 01:24:00,
2013-06-07 18:59:00,94.0,29.0,-100.00,WNW,296,2.0,21.0,10,0.00,,,0.00,414.000000,,2013-06-08 01:59:00,
2013-06-07 19:07:00,94.0,29.0,-100.00,WNW,296,2.0,21.0,10,0.00,,,0.00,414.000000,,2013-06-08 02:07:00,
2013-06-07 19:13:00,94.0,29.0,-100.00,WNW,296,2.0,21.0,10,0.00,,,0.00,414.000000,,2013-06-08 02:13:00,
2013-06-07 19:24:00,94.0,29.0,-100.00,WNW,296,2.0,21.0,10,0.00,,,0.00,414.000000,,2013-06-08 02:24:00,
2013-06-07 19:25:00,86.0,33.0,-100.00,WNW,298,7.0,19.0,15,0.00,,,0.00,96.000000,,2013-06-08 02:25:00,
2013-06-07 19:59:00,86.0,33.0,-100.00,WNW,298,7.0,19.0,15,0.00,,,0.00,96.000000,,2013-06-08 02:59:00,
2013-06-07 20:15:00,86.0,33.0,-100.00,WNW,298,7.0,19.0,15,0.00,,,0.00,96.000000,,2013-06-08 03:15:00,
2013-06-07 20:59:00,80.0,33.0,-100.00,SW,230,4.0,15.0,18,0.00,,,0.00,19.000000,,2013-06-08 03:59:00,
2013-06-07 21:03:00,80.0,33.0,-100.00,SW,230,4.0,15.0,18,0.00,,,0.00,19.000000,,2013-06-08 04:03:00,
2013-06-07 21:12:00,80.0,33.0,-100.00,SW,230,4.0,15.0,18,0.00,,,0.00,19.000000,,2013-06-08 04:12:00,
2013-06-07 21:22:00,80.0,33.0,-100.00,SW,230,4.0,15.0,18,0.00,,,0.00,19.000000,,2013-06-08 04:22:00,
2013-06-07 21:53:00,76.0,36.0,-100.00,NW,324,4.0,9.0,23,0.00,,,0.00,0.000000,,2013-06-08 04:53:00,
2013-06-07 22:02:00,76.0,36.0,-100.00,NW,324,4.0,9.0,23,0.00,,,0.00,0.000000,,2013-06-08 05:02:00,
2013-06-07 22:12:00,76.0,36.0,-100.00,NW,324,4.0,9.0,23,0.00,,,0.00,0.000000,,2013-06-08 05:12:00,
2013-06-07 22:22:00,76.0,36.0,-100.00,NW,324,4.0,9.0,23,0.00,,,0.00,0.000000,,2013-06-08 05:22:00,
2013-06-07 22:52:00,73.0,38.0,-100.00,ESE,109,6.0,10.0,28,0.00,,,0.00,0.000000,,2013-06-08 05:52:00,
2013-06-07 23:02:00,73.0,38.0,-100.00,ESE,109,6.0,10.0,28,0.00,,,0.00,0.000000,,2013-06-08 06:02:00,
2013-06-07 23:52:00,70.0,36.0,-100.00,NW,308,7.0,9.0,29,0.00,,,0.00,0.000000,,2013-06-08 06:52:00,